Timeline UpdatesTrip UpdatesNews PostsPvt PostsTravel TipsAdmin PostsConv PostsFollowed PostsChat RequestsBlog PostsPNR Posts

Disclaimer
Search
 
 
Thu Apr 24, 2014 14:07:47 ISTHomeTrainsΣChainsAtlasPNRForumGalleryNewsFAQTripsMembersLoginFeedback
No Recent News for this Train
Other Trains in the News **new
Latest...
.
Sat Feb 22, 2014 (10:28PM)
⇐ Return Journey: Train# 58111

58112/Itwari-Tatanagar Jn Passenger

Feb 22 2014 (10:27PM)
Change Departure Station:
Change Arrival Station:
Post a Train Travel TipPost a Train Travel Tip **new
Post a Comment/Question/Picture/VideoPost a Comment/Question/Picture/Video
Pantry/Catering
✕ NO Pantry Car
✕ NO Catering
RSA - Rake Sharing
Rake/Coach Composition
ENG:SLR-1 UR-3 SL-4 UR-3 VP-1 SLR-1; Entry# 189608 ; Author: sunilsagitarius
Loco
WAM-4 TATA Shed; Entry# 545455
News    PNR    Forum    Time-Table    Availability    Fare Chart    Map    Arr/Dep History    Trips    Gallery    ΣChains    X/O    Timeline    
Travel Time: 26h 35m    106 halts    Distance: 877 km    Avg Speed: 32 km/hr
Type: Passenger
Zone: SER/South Eastern
Departs @ 21:30 (Avg 11m late)
Platform# ???
SMTWTFS
Itwari/ITR 
Arrives @ 00:05 +2 nights (Avg 9m late)
Platform# 4
SMTWTFS
Tatanagar Junction/TATA 

106 halts. 117 intermediate Stations between Itwari and Tatanagar Junction

Show ALL intermediate Stations  Show Old Time-Table

#CodeStation NameX/OArrivesAvgDepartsAvgHaltPFDay#KmSpeedElevZoneAddress
1ITR»Itwari (3)»  -21:30+11--10.021306mSECRNagpur, Maharashtra
2KAVKalamna (2)  21:38+1621:40+192m--12.846296mSECRNagpur, Maharashtra
3KPKamptee (3)X  21:50+1921:52+212m--110.528290mSECRMH 441001, Maharashtra
4KNHNKanhan Junction (3)  22:02+2022:04+212m--115.286288mSECRKanhan, Maharashtra
5SALSalwa (2)X  22:08+2522:10+262m--121.066289mSECRNagpur, Maharashtra
6CHCRChacher (2)O  22:16+2822:18+302m--127.563284mSECRNagpur, Maharashtra
7TARTharsa (2)  22:24+3122:26+312m--133.868292mSECRNagpur, Maharashtra
8RRLRewral (2)X  22:31+3222:33+322m--139.577293mSECRNagpur Distt, Maharashtra
9KHATKhat (2)  22:40+3322:42+342m--148.554286mSECRNagpur, Maharashtra
10BRDBhandara Road (2)X  22:53+2822:55+302m--158.454266mSECRState Highway 252, Maharashtra
11TMRTumsar Road (3)O  23:15+3023:20+285m--176.488267mSECRBhandara, Maharashtra
12MNUMundikota (2)  23:27+3523:29+352m--186.767269mSECRBhandara, Maharashtra
13TROTirora (3)  23:38+3623:40+372m--196.768282mSECRDist Gondiya, Maharashtra
14KWNKachewani (3)  23:46+3923:48+392m--1103.672303mSECRKachewani, Maharashtra
15GJGangajhari (2)  23:55+4023:57+392m--1111.930315mSECRBhandara, Maharashtra
16GGondia Junction (7)  00:25+2300:35+2610m--2126.089316mSECRGondia 441601, Maharashtra
17GDMGudma (2)  00:43+3300:45+332m--2137.973323mSECRGondia, Maharashtra
18AGNAmgaon (2)  00:54+3300:56+332m--2148.880317mSECRGondia, Maharashtra
19SKSSalekasa (2)  01:07+3901:09+402m--2163.653312mSECRRajnandgaon, Chhattisgarh
20DKSDarekasa (2)  01:22+3901:24+392m--2175.166381mSECRRajnandgaon, Chhattisgarh
21BTLBortalao (2)X  01:31+4001:33+412m--2182.853409mSECRRajnandgaon, Chhattisgarh
22PJBPaniajob (2)  01:43+4601:45+462m--2191.631398mSECRRajnandgaon, Chhattisgarh
23DGGDongargarh (2)X  02:00+4002:10+4010m--2199.398353mSECRDongargarh, Chhattisgarh
24JTRJatkanharX  02:14+4402:16+442m--2205.866330mSECRRajnandgaon, Chhattisgarh
25MUAMusra  02:22+4402:24+432m--2212.569325mSECRRajnandgaon, Chhattisgarh
26RJNRaj Nandgaon (3)  02:40+4202:45+415m--2230.8100313mSECRRajnandgaon, Chhattisgarh
27MUPMurhipar  02:54+3302:56+332m--2245.816319mSECRRajnandgaon, Chhattisgarh
28DURGDurg Junction (6)X  03:55+704:00+95m--2261.345299mSECRPh: 91-788-2322059, Chhattisgarh
29BQRBhilai Nagar (2)  04:06+1104:07+111m--2265.866298mSECRBhilai, Chhattisgarh
30BPHBBhilai Power House (3)  04:11+1404:13+142m--2270.256312mSECRBhilai, Chhattisgarh
31BIABhilai  04:18+1404:20+142m--2274.952309mSECRBhilai, Chhattisgarh
32DBECDevbaloda CharodaX  04:24+1604:26+152m--2278.323310mSECRBhilai, Chhattisgarh
33KMIKumhariX  04:46+1404:48+142m--2285.851287mSECRKumhari, Chhattisgarh
34SRWNSaraswatinagar  05:00+1205:01+121m--2296.010291mSECRRaipur, Chhattisgarh
35RRaipur Junction (6)X  05:15+1005:35+1420m--2298.252297mSECRRaipur, Chhattisgarh
36WRCWRS Colony PH  05:38+1705:40+172m--2300.830286mSECRRaipur, Chhattisgarh
37URKUrkura  05:46+1705:48+162m--2303.973275mSECRRaipur, Chhattisgarh
38MDHMandharX  05:55+1805:56+191m--2312.464281mSECRDonde Kalan, Chhattisgarh
39SLHSiliariX  06:05+2206:06+231m--2322.056280mSECRBanjari Rd, Chhattisgarh
40BKTHBaikunthX  06:15+2606:17+242m--2330.346287mSECRBanjari Rd, Chhattisgarh
41TLDTilda (3)X  06:25+2306:27+232m--2336.480291mSECRBanjari Rd, Chhattisgarh
42HNHathbandhX  06:35+2506:37+252m--2347.184283mSECRRaipur, Chhattisgarh
43BYTBhatapara (4)X  06:48+2506:50+272m--2362.559270mSECRBanjari Road, Chhattisgarh
44NPINipania  07:05+2507:06+261m--2377.255259mSECRNational Highway 200, Chhattisgarh
45DGSDagoriX  07:15+2607:16+271m--2385.592254mSECRCollege Road, Chhattisgarh
46BYLBelha  07:21+2807:23+282m--2393.170269mSECRCollege Road, Chhattisgarh
47CHBTChakarbhathaX  07:28+3507:30+352m--2399.037285mSECRBilaspur, Chhattisgarh
48DPHDadhaparaXO  07:35+3207:37+332m--2402.08272mSECRBilaspur, Chhattisgarh
49BSPBilaspur Junction (8)X  08:25+808:40+1415m22408.748271mSECRBilaspur, Chhattisgarh
50GTWGatoraX  08:48+1708:50+172m--2415.157268mSECRBilaspur, Chhattisgarh
51JRMGJairamnagarX  08:58+1609:00+172m--2422.867272mSECRNational Highway 200, Chhattisgarh
52KTSHKotmi Sonar HaltX  09:06+2009:08+202m--2429.564266mSECRKotmisunar, Chhattisgarh
53AKTAkaltara (4)X  09:14+2009:16+222m--2435.966284mSECRDist. Janjgir Champa, Chhattisgarh
54KPNAKapan (1)XO  09:23+2209:25+222m12443.648263mSECRNational Highway 200, Chhattisgarh
55NIANailaX  09:34+2209:36+242m--2450.834273mSECRJanjgir, Chhattisgarh
56CPHChampa Junction (3)X  09:55+2010:00+255m--2461.777264mSECRNational Highway 200 (07819-245767), Chhattisgarh
57SGRDSaragaon Road  10:07+3110:08+311m--2470.698254mSECRNational Highway 200, Chhattisgarh
58BUABaradwarX  10:12+3110:14+312m--2477.261256mSECRJanjgir-Champa, Chhattisgarh
59JDDAJetha  10:21+3210:22+321m--2484.378244mSECRNational Highway 200, Chhattisgarh
60SKTSakti (4)  10:28+3210:30+342m--2492.156237mSECRJanjgir-Champa, Chhattisgarh
61JDIJharradih  10:41+3410:43+372m--2502.263247mSECRRaigarh, Chhattisgarh
62KHSKharsia  10:48+3910:50+392m--2507.573259mSECRNational Highway 200, Chhattisgarh
63ROBRobertson  10:57+4110:59+412m--2516.068239mSECRRaigarh, Chhattisgarh
64BEFBhupdeopur  11:07+4311:09+452m--2525.079243mSECRRaigarh, Chhattisgarh
65KDTRKirodimalnagarO  11:16+5011:18+512m--2534.225240mSECRRaigarh, Chhattisgarh
66RIGRaigarh (3)  11:35+4711:40+525m--2541.497220mSECRRaigarh, Chhattisgarh
67KRLKotarlia  11:46+5711:48+582m--2551.273229mSECRRaigarh, Chhattisgarh
68JMGJamga  11:55+1:0011:57+1:072m--2559.765233mSECRJamga Station, Chhattisgarh
69DAODaghoraX  12:08+1:0612:10+1:062m--2571.634269mSECRRaigarh, Chhattisgarh
70HGRHimgir  12:23+1:0212:25+1:042m--2579.081275mSECRNational Highway 200, Chhattisgarh
71BPHBelpahar  12:35+1:0612:37+1:102m--2592.525235mSECRBelpahar, Odisha
72BRJNBrajrajnagarO  12:58+1:0613:00+1:062m--2601.46212mSECRBrajrajnagar, Odisha
73IBIbXO  13:28+4713:30+482m--2604.18207mSECRJharsuguda, Odisha
74JSGJharsuguda Junction (5)X  14:35+1314:55+2320m--2613.157236mSERJharsuguda, Odisha
75DTVDhutra  15:04+2615:05+281m--2621.747240mSERJharsuguda, Odisha
76PNPLPanpaliX  15:12+2715:13+271m--2627.156258mSERJharsuguda, Odisha
77BEHBagdihi (3)O  15:20+2715:21+311m--2633.754254mSERState Highway 24 PH: 06640-286227, Odisha
78DIHDharuadihi  15:28+3215:29+341m--2640.064258mSERSH 24, Odisha
79BMBBamra (3)  15:38+3615:39+391m--2649.656259mSERBamra PH : 06642-229268, Odisha
80TGMTangarmundaX  15:48+3915:49+391m--2658.058264mSERSundargarh, Odisha
81GPHGarpos (3)O  15:57+3915:58+431m--2665.847278mSERSundargarh, Odisha
82SOGRSogra  16:04+4316:05+451m--2670.555293mSERState Highway 10, Odisha
83SXNSonakhan  16:12+4516:13+461m--2676.955249mSERSundargarh, Odisha
84GPRaj Gangpur (3)  16:21+4516:22+461m--2684.255237mSERRaj Ganpur, Odisha
85KXNKanshbahal  16:32+4816:33+521m--2693.453220mSERSundargarh, Odisha
86KLGKalunga  16:41+5416:42+571m--2700.550203mSERSundargarh, Odisha
87PPOPanposh (2)X  16:51+5916:52+1:011m--2708.08190mSERRourkela, Odisha
88ROURourkela Junction (5)X  17:40+2618:40+4260m42714.030198mSERRourkela, Odisha
89BNDMBondamunda (3)  18:53+5318:54+531m--2720.541213mSERRourkela, Odisha
90BZRBisra  19:05+5319:06+541m--2728.158224mSERSundargarh, Odisha
91BULBhalulata  19:13+5519:14+561m--2734.950239mSERRourkela, Jharkhand
92JRAJaraikelaX  19:23+5619:24+571m--2742.468215mSERJaraikela Station, Jharkhand
93MOUManoharpurX  19:34+1:0119:35+1:081m--2753.839228mSERManoharpur, Jharkhand
94PSTPosotiaX  19:52+1:0419:53+1:111m--2764.851279mSERPosotia Station, Jharkhand
95DRWNDerowan P. Halt  20:01+1:1320:02+1:131m--2771.636275mSERDerowan, Jharkhand
96GOLGoilkera  20:18+1:1320:19+1:151m--2781.351333mSERGoilkera, Jharkhand
97TUXTunia  20:27+1:1320:28+1:141m--2788.145297mSERTunia Station, Jharkhand
98SWRSonua  20:36+1:1220:37+1:131m--2794.169287mSERSonua, Jharkhand
99LPHLotapaharX  20:47+1:1120:48+1:141m--2805.526251mSERLotapahar Station, Jharkhand
100CKPChakradharpur (3)X  21:10+1:0621:50+4440m--2815.164235mSERChakradharpur (West Singhbhum), Jharkhand
101BRMBarabamboX  22:00+4422:01+441m--2825.756213mSERBarabambo Station, Jharkhand
102RKSNRajkharsawan Junction  22:11+4122:12+421m--2835.150189mSERWest Singhbhum district, Jharkhand
103MMVMahali Marup  22:21+3922:22+401m--2842.651183mSERMahali Marup Station, Jharkhand
104SINISini Junction  22:31+3622:32+371m22850.348182mSERNational Highway 33, Jharkhand
105BRBSBirbans  22:41+3622:42+361m--2857.654171mSERBirbans, Jharkhand
106GMHGamharia (3)X  22:52+3222:53+341m22866.640165mSERJamshedpur, Jharkhand
107ADTPAdityapur (3)  23:02+1423:03+121m22872.75152mSERJamshedpur, Jharkhand
108TATA•Tatanagar Junction (5)•  00:05+9-43877.3-164mSER91-657-2423026, Jharkhand
Scroll to Top
Scroll to Bottom